sensor_id;sensor_type;location;lat;lon;timestamp;temperature;humidity
31455;DHT22;18084;53.028;8.834;2023-03-12T00:00:15;-0.40;99.90
31455;DHT22;18084;53.028;8.834;2023-03-12T00:02:41;-0.30;99.90
31455;DHT22;18084;53.028;8.834;2023-03-12T00:05:06;-0.50;99.90
31455;DHT22;18084;53.028;8.834;2023-03-12T00:07:32;-0.30;99.90
31455;DHT22;18084;53.028;8.834;2023-03-12T00:09:57;-0.40;99.90
31455;DHT22;18084;53.028;8.834;2023-03-12T00:12:23;-0.30;99.90
31455;DHT22;18084;53.028;8.834;2023-03-12T00:14:48;-0.50;99.90
31455;DHT22;18084;53.028;8.834;2023-03-12T00:17:14;-0.50;99.90
31455;DHT22;18084;53.028;8.834;2023-03-12T00:19:39;0.90;99.90
31455;DHT22;18084;53.028;8.834;2023-03-12T00:22:04;-0.60;99.90
31455;DHT22;18084;53.028;8.834;2023-03-12T00:24:30;-0.50;99.90
31455;DHT22;18084;53.028;8.834;2023-03-12T00:26:55;-0.50;99.90
31455;DHT22;18084;53.028;8.834;2023-03-12T00:29:21;-0.60;99.90
31455;DHT22;18084;53.028;8.834;2023-03-12T00:31:46;-0.70;99.90
31455;DHT22;18084;53.028;8.834;2023-03-12T00:34:12;-0.60;99.90
31455;DHT22;18084;53.028;8.834;2023-03-12T00:36:37;-0.70;99.90
31455;DHT22;18084;53.028;8.834;2023-03-12T00:39:04;-0.70;99.90
31455;DHT22;18084;53.028;8.834;2023-03-12T00:41:30;-0.50;99.90
31455;DHT22;18084;53.028;8.834;2023-03-12T00:43:56;-0.90;99.90
31455;DHT22;18084;53.028;8.834;2023-03-12T00:46:21;-0.90;99.90
31455;DHT22;18084;53.028;8.834;2023-03-12T00:48:47;-0.80;99.90
31455;DHT22;18084;53.028;8.834;2023-03-12T00:51:12;-0.90;99.90
31455;DHT22;18084;53.028;8.834;2023-03-12T00:53:38;-1.00;99.90
31455;DHT22;18084;53.028;8.834;2023-03-12T00:56:04;-1.10;99.90
31455;DHT22;18084;53.028;8.834;2023-03-12T00:58:30;-1.00;99.90
31455;DHT22;18084;53.028;8.834;2023-03-12T01:00:56;-1.00;99.90
31455;DHT22;18084;53.028;8.834;2023-03-12T01:03:21;-1.00;99.90
31455;DHT22;18084;53.028;8.834;2023-03-12T01:05:47;0.90;99.90
31455;DHT22;18084;53.028;8.834;2023-03-12T01:08:18;-1.10;99.90
31455;DHT22;18084;53.028;8.834;2023-03-12T01:10:43;-1.10;99.90
31455;DHT22;18084;53.028;8.834;2023-03-12T01:13:09;-1.10;99.90
31455;DHT22;18084;53.028;8.834;2023-03-12T01:15:34;0.60;99.90
31455;DHT22;18084;53.028;8.834;2023-03-12T01:18:00;-1.10;99.90
31455;DHT22;18084;53.028;8.834;2023-03-12T01:20:25;-1.20;99.90
31455;DHT22;18084;53.028;8.834;2023-03-12T01:22:51;-1.10;99.90
31455;DHT22;18084;53.028;8.834;2023-03-12T01:25:16;0.50;99.90
31455;DHT22;18084;53.028;8.834;2023-03-12T01:27:42;-1.30;99.90
31455;DHT22;18084;53.028;8.834;2023-03-12T01:30:07;-1.30;99.90
31455;DHT22;18084;53.028;8.834;2023-03-12T01:32:33;-1.20;99.90
31455;DHT22;18084;53.028;8.834;2023-03-12T01:34:59;-1.30;99.90
31455;DHT22;18084;53.028;8.834;2023-03-12T01:37:25;-1.40;99.90
31455;DHT22;18084;53.028;8.834;2023-03-12T01:39:50;-1.30;99.90
31455;DHT22;18084;53.028;8.834;2023-03-12T01:42:16;-1.40;99.90
31455;DHT22;18084;53.028;8.834;2023-03-12T01:44:48;-1.50;99.90
31455;DHT22;18084;53.028;8.834;2023-03-12T01:47:13;-1.30;99.90
31455;DHT22;18084;53.028;8.834;2023-03-12T01:49:38;-1.40;99.90
31455;DHT22;18084;53.028;8.834;2023-03-12T01:52:12;-1.50;99.90
31455;DHT22;18084;53.028;8.834;2023-03-12T01:54:42;-1.40;99.90
31455;DHT22;18084;53.028;8.834;2023-03-12T01:57:12;-2.90;99.90
31455;DHT22;18084;53.028;8.834;2023-03-12T01:59:43;-1.40;99.90
31455;DHT22;18084;53.028;8.834;2023-03-12T02:02:10;-1.40;99.90
31455;DHT22;18084;53.028;8.834;2023-03-12T02:04:36;-1.50;99.90
31455;DHT22;18084;53.028;8.834;2023-03-12T02:07:04;-1.70;99.90
31455;DHT22;18084;53.028;8.834;2023-03-12T02:09:31;0.20;99.90
31455;DHT22;18084;53.028;8.834;2023-03-12T02:11:57;-1.60;99.90
31455;DHT22;18084;53.028;8.834;2023-03-12T02:14:23;-1.70;99.90
31455;DHT22;18084;53.028;8.834;2023-03-12T02:16:48;-1.70;99.90
31455;DHT22;18084;53.028;8.834;2023-03-12T02:19:16;-1.80;99.90
31455;DHT22;18084;53.028;8.834;2023-03-12T02:21:42;-1.80;99.90
31455;DHT22;18084;53.028;8.834;2023-03-12T02:24:16;0.20;99.90
31455;DHT22;18084;53.028;8.834;2023-03-12T02:26:45;-1.80;99.90
31455;DHT22;18084;53.028;8.834;2023-03-12T02:29:12;-2.00;99.90
31455;DHT22;18084;53.028;8.834;2023-03-12T02:31:42;-1.80;99.90
31455;DHT22;18084;53.028;8.834;2023-03-12T02:34:08;-1.90;99.90
31455;DHT22;18084;53.028;8.834;2023-03-12T02:36:34;-2.00;99.90
31455;DHT22;18084;53.028;8.834;2023-03-12T02:38:59;-2.00;99.90
31455;DHT22;18084;53.028;8.834;2023-03-12T02:43:56;-2.30;99.90
31455;DHT22;18084;53.028;8.834;2023-03-12T02:46:22;-2.10;99.90
31455;DHT22;18084;53.028;8.834;2023-03-12T02:48:48;-2.20;99.90
31455;DHT22;18084;53.028;8.834;2023-03-12T02:51:13;-2.00;99.90
31455;DHT22;18084;53.028;8.834;2023-03-12T02:53:39;-2.10;99.90
31455;DHT22;18084;53.028;8.834;2023-03-12T02:56:05;-2.10;99.90
31455;DHT22;18084;53.028;8.834;2023-03-12T02:58:30;-2.10;99.90
31455;DHT22;18084;53.028;8.834;2023-03-12T03:00:56;-2.20;99.90
31455;DHT22;18084;53.028;8.834;2023-03-12T03:03:21;-2.10;99.90
31455;DHT22;18084;53.028;8.834;2023-03-12T03:05:47;-2.10;99.90
31455;DHT22;18084;53.028;8.834;2023-03-12T03:08:12;-2.00;99.90
31455;DHT22;18084;53.028;8.834;2023-03-12T03:10:38;-2.10;99.90
31455;DHT22;18084;53.028;8.834;2023-03-12T03:13:03;-2.00;99.90
31455;DHT22;18084;53.028;8.834;2023-03-12T03:15:28;-2.00;99.90
31455;DHT22;18084;53.028;8.834;2023-03-12T03:17:54;-2.10;99.90
31455;DHT22;18084;53.028;8.834;2023-03-12T03:20:19;-2.00;99.90
31455;DHT22;18084;53.028;8.834;2023-03-12T03:22:45;-2.40;99.90
31455;DHT22;18084;53.028;8.834;2023-03-12T03:25:11;-2.00;99.90
31455;DHT22;18084;53.028;8.834;2023-03-12T03:27:36;-1.90;99.90
31455;DHT22;18084;53.028;8.834;2023-03-12T03:30:02;-2.00;99.90
31455;DHT22;18084;53.028;8.834;2023-03-12T03:32:28;-1.90;99.90
31455;DHT22;18084;53.028;8.834;2023-03-12T03:34:53;-2.20;99.90
31455;DHT22;18084;53.028;8.834;2023-03-12T03:37:18;-2.00;99.90
31455;DHT22;18084;53.028;8.834;2023-03-12T03:39:45;-2.00;99.90
31455;DHT22;18084;53.028;8.834;2023-03-12T03:42:11;-2.00;99.90
31455;DHT22;18084;53.028;8.834;2023-03-12T03:44:36;-2.20;99.90
31455;DHT22;18084;53.028;8.834;2023-03-12T03:47:01;-0.90;99.90
31455;DHT22;18084;53.028;8.834;2023-03-12T03:49:27;-2.00;99.90
31455;DHT22;18084;53.028;8.834;2023-03-12T03:51:52;-1.90;99.90
31455;DHT22;18084;53.028;8.834;2023-03-12T03:54:18;-1.90;99.90
31455;DHT22;18084;53.028;8.834;2023-03-12T03:56:44;-2.00;99.90
31455;DHT22;18084;53.028;8.834;2023-03-12T03:59:09;-2.10;99.90
31455;DHT22;18084;53.028;8.834;2023-03-12T04:01:35;-2.10;99.90
31455;DHT22;18084;53.028;8.834;2023-03-12T04:04:01;-3.40;99.90
31455;DHT22;18084;53.028;8.834;2023-03-12T04:06:27;-2.10;99.90
31455;DHT22;18084;53.028;8.834;2023-03-12T04:08:54;-2.10;99.90
31455;DHT22;18084;53.028;8.834;2023-03-12T04:11:20;-2.10;99.90
31455;DHT22;18084;53.028;8.834;2023-03-12T04:13:46;-2.10;99.90
31455;DHT22;18084;53.028;8.834;2023-03-12T04:16:12;-2.10;99.90
31455;DHT22;18084;53.028;8.834;2023-03-12T04:18:37;-2.00;99.90
31455;DHT22;18084;53.028;8.834;2023-03-12T04:21:05;-2.00;99.90
31455;DHT22;18084;53.028;8.834;2023-03-12T04:23:31;-1.80;99.90
31455;DHT22;18084;53.028;8.834;2023-03-12T04:25:56;-1.90;99.90
31455;DHT22;18084;53.028;8.834;2023-03-12T04:28:22;-1.90;99.90
31455;DHT22;18084;53.028;8.834;2023-03-12T04:30:57;-1.90;99.90
31455;DHT22;18084;53.028;8.834;2023-03-12T04:33:24;-1.80;99.90
31455;DHT22;18084;53.028;8.834;2023-03-12T04:35:50;-1.90;99.90
31455;DHT22;18084;53.028;8.834;2023-03-12T04:38:16;-1.90;99.90
31455;DHT22;18084;53.028;8.834;2023-03-12T04:40:42;-1.90;99.90
31455;DHT22;18084;53.028;8.834;2023-03-12T04:43:07;-1.60;99.90
31455;DHT22;18084;53.028;8.834;2023-03-12T04:45:33;-1.80;99.90
31455;DHT22;18084;53.028;8.834;2023-03-12T04:47:58;-1.90;99.90
31455;DHT22;18084;53.028;8.834;2023-03-12T04:50:24;-1.90;99.90
31455;DHT22;18084;53.028;8.834;2023-03-12T04:52:49;-1.80;99.90
31455;DHT22;18084;53.028;8.834;2023-03-12T04:55:15;-1.90;99.90
31455;DHT22;18084;53.028;8.834;2023-03-12T04:57:40;-1.60;99.90
31455;DHT22;18084;53.028;8.834;2023-03-12T05:00:06;-1.80;99.90
31455;DHT22;18084;53.028;8.834;2023-03-12T05:02:35;-1.80;99.90
31455;DHT22;18084;53.028;8.834;2023-03-12T05:05:01;-1.90;99.90
31455;DHT22;18084;53.028;8.834;2023-03-12T05:07:26;-1.80;99.90
31455;DHT22;18084;53.028;8.834;2023-03-12T05:09:52;-1.70;99.90
31455;DHT22;18084;53.028;8.834;2023-03-12T05:12:17;-2.00;99.90
31455;DHT22;18084;53.028;8.834;2023-03-12T05:14:43;-1.80;99.90
31455;DHT22;18084;53.028;8.834;2023-03-12T05:17:08;-1.80;99.90
31455;DHT22;18084;53.028;8.834;2023-03-12T05:19:34;-1.90;99.90
31455;DHT22;18084;53.028;8.834;2023-03-12T05:21:59;-1.90;99.90
31455;DHT22;18084;53.028;8.834;2023-03-12T05:24:25;-1.80;99.90
31455;DHT22;18084;53.028;8.834;2023-03-12T05:26:50;-1.70;99.90
31455;DHT22;18084;53.028;8.834;2023-03-12T05:29:15;-1.70;99.90
31455;DHT22;18084;53.028;8.834;2023-03-12T05:31:41;-1.70;99.90
31455;DHT22;18084;53.028;8.834;2023-03-12T05:34:06;-1.60;99.90
31455;DHT22;18084;53.028;8.834;2023-03-12T05:36:32;-1.60;99.90
31455;DHT22;18084;53.028;8.834;2023-03-12T05:38:57;-1.60;99.90
31455;DHT22;18084;53.028;8.834;2023-03-12T05:41:24;-1.60;99.90
31455;DHT22;18084;53.028;8.834;2023-03-12T05:43:53;-1.50;99.90
31455;DHT22;18084;53.028;8.834;2023-03-12T05:46:20;-1.50;99.90
31455;DHT22;18084;53.028;8.834;2023-03-12T05:48:46;-1.50;99.90
31455;DHT22;18084;53.028;8.834;2023-03-12T05:51:12;-1.50;99.90
31455;DHT22;18084;53.028;8.834;2023-03-12T05:53:37;-1.40;99.90
31455;DHT22;18084;53.028;8.834;2023-03-12T05:56:03;-1.40;99.90
31455;DHT22;18084;53.028;8.834;2023-03-12T05:58:29;-1.40;99.90
31455;DHT22;18084;53.028;8.834;2023-03-12T06:00:55;-1.40;99.90
31455;DHT22;18084;53.028;8.834;2023-03-12T06:03:20;-1.50;99.90
31455;DHT22;18084;53.028;8.834;2023-03-12T06:05:46;-1.40;99.90
31455;DHT22;18084;53.028;8.834;2023-03-12T06:08:12;-1.40;99.90
31455;DHT22;18084;53.028;8.834;2023-03-12T06:10:38;-1.40;99.90
31455;DHT22;18084;53.028;8.834;2023-03-12T06:13:03;-1.30;99.90
31455;DHT22;18084;53.028;8.834;2023-03-12T06:15:29;-1.40;99.90
31455;DHT22;18084;53.028;8.834;2023-03-12T06:17:54;-1.30;99.90
31455;DHT22;18084;53.028;8.834;2023-03-12T06:20:20;-1.30;99.90
31455;DHT22;18084;53.028;8.834;2023-03-12T06:22:45;-1.20;99.90
31455;DHT22;18084;53.028;8.834;2023-03-12T06:25:11;-1.10;99.90
31455;DHT22;18084;53.028;8.834;2023-03-12T06:27:36;-1.20;99.90
31455;DHT22;18084;53.028;8.834;2023-03-12T06:30:03;-1.10;99.90
31455;DHT22;18084;53.028;8.834;2023-03-12T06:32:29;-1.10;99.90
31455;DHT22;18084;53.028;8.834;2023-03-12T06:34:54;-0.30;99.90
31455;DHT22;18084;53.028;8.834;2023-03-12T06:37:19;-1.00;99.90
31455;DHT22;18084;53.028;8.834;2023-03-12T06:39:45;0.40;99.90
31455;DHT22;18084;53.028;8.834;2023-03-12T06:42:11;-1.10;99.90
31455;DHT22;18084;53.028;8.834;2023-03-12T06:44:37;-1.00;99.90
31455;DHT22;18084;53.028;8.834;2023-03-12T06:47:02;-1.00;99.90
31455;DHT22;18084;53.028;8.834;2023-03-12T06:49:28;-0.90;99.90
31455;DHT22;18084;53.028;8.834;2023-03-12T06:51:56;-0.90;99.90
31455;DHT22;18084;53.028;8.834;2023-03-12T06:54:22;-0.90;99.90
31455;DHT22;18084;53.028;8.834;2023-03-12T06:56:47;-0.60;99.90
31455;DHT22;18084;53.028;8.834;2023-03-12T06:59:12;-0.80;99.90
31455;DHT22;18084;53.028;8.834;2023-03-12T07:01:38;-0.80;99.90
31455;DHT22;18084;53.028;8.834;2023-03-12T07:04:03;-0.40;99.90
31455;DHT22;18084;53.028;8.834;2023-03-12T07:06:29;-0.30;99.90
31455;DHT22;18084;53.028;8.834;2023-03-12T07:08:54;1.20;99.90
31455;DHT22;18084;53.028;8.834;2023-03-12T07:11:20;-0.30;99.90
31455;DHT22;18084;53.028;8.834;2023-03-12T07:13:46;-0.20;99.90
31455;DHT22;18084;53.028;8.834;2023-03-12T07:16:11;-0.10;99.90
31455;DHT22;18084;53.028;8.834;2023-03-12T07:18:37;0.10;99.90
31455;DHT22;18084;53.028;8.834;2023-03-12T07:21:02;0.10;99.90
31455;DHT22;18084;53.028;8.834;2023-03-12T07:23:28;0.10;99.90
31455;DHT22;18084;53.028;8.834;2023-03-12T07:25:54;0.20;99.90
31455;DHT22;18084;53.028;8.834;2023-03-12T07:28:20;0.30;99.90
31455;DHT22;18084;53.028;8.834;2023-03-12T07:30:45;0.50;99.90
31455;DHT22;18084;53.028;8.834;2023-03-12T07:33:17;0.70;99.90
31455;DHT22;18084;53.028;8.834;2023-03-12T07:35:44;0.80;99.90
31455;DHT22;18084;53.028;8.834;2023-03-12T07:38:09;1.00;99.90
31455;DHT22;18084;53.028;8.834;2023-03-12T07:40:35;0.60;99.90
31455;DHT22;18084;53.028;8.834;2023-03-12T07:43:01;1.00;99.90
31455;DHT22;18084;53.028;8.834;2023-03-12T07:45:26;1.10;99.90
31455;DHT22;18084;53.028;8.834;2023-03-12T07:47:52;1.00;99.90
31455;DHT22;18084;53.028;8.834;2023-03-12T07:50:18;0.90;99.90
31455;DHT22;18084;53.028;8.834;2023-03-12T07:52:44;0.80;99.90
31455;DHT22;18084;53.028;8.834;2023-03-12T07:55:09;0.80;99.90
31455;DHT22;18084;53.028;8.834;2023-03-12T07:57:35;0.60;99.90
31455;DHT22;18084;53.028;8.834;2023-03-12T08:00:01;0.80;99.90
31455;DHT22;18084;53.028;8.834;2023-03-12T08:02:26;2.50;99.90
31455;DHT22;18084;53.028;8.834;2023-03-12T08:04:52;0.80;99.90
31455;DHT22;18084;53.028;8.834;2023-03-12T08:07:17;0.90;99.90
31455;DHT22;18084;53.028;8.834;2023-03-12T08:09:43;0.90;99.90
31455;DHT22;18084;53.028;8.834;2023-03-12T08:12:08;0.90;99.90
31455;DHT22;18084;53.028;8.834;2023-03-12T08:14:34;0.80;99.90
31455;DHT22;18084;53.028;8.834;2023-03-12T08:16:59;0.90;99.90
31455;DHT22;18084;53.028;8.834;2023-03-12T08:19:26;1.00;99.90
31455;DHT22;18084;53.028;8.834;2023-03-12T08:21:51;1.10;99.90
31455;DHT22;18084;53.028;8.834;2023-03-12T08:24:17;1.20;99.90
31455;DHT22;18084;53.028;8.834;2023-03-12T08:26:43;1.20;99.90
31455;DHT22;18084;53.028;8.834;2023-03-12T08:29:08;1.60;99.90
31455;DHT22;18084;53.028;8.834;2023-03-12T08:31:34;2.10;99.90
31455;DHT22;18084;53.028;8.834;2023-03-12T08:33:59;2.30;99.90
31455;DHT22;18084;53.028;8.834;2023-03-12T08:36:25;2.70;98.00
31455;DHT22;18084;53.028;8.834;2023-03-12T08:38:50;2.70;95.60
31455;DHT22;18084;53.028;8.834;2023-03-12T08:41:16;2.50;95.70
31455;DHT22;18084;53.028;8.834;2023-03-12T08:43:41;2.70;97.90
31455;DHT22;18084;53.028;8.834;2023-03-12T08:46:06;2.40;96.60
31455;DHT22;18084;53.028;8.834;2023-03-12T08:48:32;2.40;96.40
31455;DHT22;18084;53.028;8.834;2023-03-12T08:50:58;3.90;96.20
31455;DHT22;18084;53.028;8.834;2023-03-12T08:53:24;2.50;95.10
31455;DHT22;18084;53.028;8.834;2023-03-12T08:55:53;2.60;95.70
31455;DHT22;18084;53.028;8.834;2023-03-12T08:58:19;2.50;91.50
31455;DHT22;18084;53.028;8.834;2023-03-12T09:00:44;2.50;80.30
31455;DHT22;18084;53.028;8.834;2023-03-12T09:03:10;2.60;73.80
31455;DHT22;18084;53.028;8.834;2023-03-12T09:05:39;3.00;56.80
31455;DHT22;18084;53.028;8.834;2023-03-12T09:08:05;3.30;51.70
31455;DHT22;18084;53.028;8.834;2023-03-12T09:10:30;3.40;24.20
31455;DHT22;18084;53.028;8.834;2023-03-12T09:12:56;3.40;22.10
31455;DHT22;18084;53.028;8.834;2023-03-12T09:15:21;3.20;19.60
31455;DHT22;18084;53.028;8.834;2023-03-12T09:17:47;3.10;32.50
31455;DHT22;18084;53.028;8.834;2023-03-12T09:20:12;3.00;38.90
31455;DHT22;18084;53.028;8.834;2023-03-12T09:22:40;2.90;43.60
31455;DHT22;18084;53.028;8.834;2023-03-12T09:25:07;2.80;41.00
31455;DHT22;18084;53.028;8.834;2023-03-12T09:27:39;2.80;44.30
31455;DHT22;18084;53.028;8.834;2023-03-12T09:30:06;2.90;36.60
31455;DHT22;18084;53.028;8.834;2023-03-12T09:32:32;3.00;44.40
31455;DHT22;18084;53.028;8.834;2023-03-12T09:34:58;3.20;36.20
31455;DHT22;18084;53.028;8.834;2023-03-12T09:37:23;3.30;15.70
31455;DHT22;18084;53.028;8.834;2023-03-12T09:39:49;3.30;24.10
31455;DHT22;18084;53.028;8.834;2023-03-12T09:42:24;3.40;11.50
31455;DHT22;18084;53.028;8.834;2023-03-12T09:44:52;3.50;6.50
31455;DHT22;18084;53.028;8.834;2023-03-12T09:47:24;3.50;1.00
31455;DHT22;18084;53.028;8.834;2023-03-12T09:49:52;3.60;1.00
31455;DHT22;18084;53.028;8.834;2023-03-12T09:52:26;3.60;1.00
31455;DHT22;18084;53.028;8.834;2023-03-12T09:57:27;3.60;1.00
31455;DHT22;18084;53.028;8.834;2023-03-12T09:59:54;3.70;1.00
31455;DHT22;18084;53.028;8.834;2023-03-12T10:07:50;4.10;1.00
31455;DHT22;18084;53.028;8.834;2023-03-12T10:12:49;4.40;1.00
31455;DHT22;18084;53.028;8.834;2023-03-12T10:17:51;4.50;1.00
31455;DHT22;18084;53.028;8.834;2023-03-12T10:20:25;4.50;1.00
31455;DHT22;18084;53.028;8.834;2023-03-12T10:25:27;4.40;1.00
31455;DHT22;18084;53.028;8.834;2023-03-12T10:27:56;4.50;1.00
31455;DHT22;18084;53.028;8.834;2023-03-12T10:30:24;4.60;1.00
31455;DHT22;18084;53.028;8.834;2023-03-12T10:33:00;4.70;1.00
31455;DHT22;18084;53.028;8.834;2023-03-12T10:35:28;4.70;1.00
31455;DHT22;18084;53.028;8.834;2023-03-12T10:37:58;4.70;1.00
31455;DHT22;18084;53.028;8.834;2023-03-12T10:40:25;4.70;1.00
31455;DHT22;18084;53.028;8.834;2023-03-12T10:42:51;4.70;1.00
31455;DHT22;18084;53.028;8.834;2023-03-12T10:45:20;4.60;1.00
31455;DHT22;18084;53.028;8.834;2023-03-12T10:47:49;4.60;1.00
31455;DHT22;18084;53.028;8.834;2023-03-12T10:50:21;4.50;1.00
31455;DHT22;18084;53.028;8.834;2023-03-12T10:52:48;4.50;1.00
31455;DHT22;18084;53.028;8.834;2023-03-12T10:57:40;4.50;1.00
31455;DHT22;18084;53.028;8.834;2023-03-12T11:00:06;4.50;1.00
31455;DHT22;18084;53.028;8.834;2023-03-12T11:02:39;4.40;1.00
31455;DHT22;18084;53.028;8.834;2023-03-12T11:05:22;4.40;1.00
31455;DHT22;18084;53.028;8.834;2023-03-12T11:07:49;4.40;1.00
31455;DHT22;18084;53.028;8.834;2023-03-12T11:10:16;4.40;1.00
31455;DHT22;18084;53.028;8.834;2023-03-12T11:17:45;4.40;1.00
31455;DHT22;18084;53.028;8.834;2023-03-12T11:20:17;4.30;11.50
31455;DHT22;18084;53.028;8.834;2023-03-12T11:22:48;4.30;19.00
31455;DHT22;18084;53.028;8.834;2023-03-12T11:25:21;4.20;51.10
31455;DHT22;18084;53.028;8.834;2023-03-12T11:27:54;4.00;75.40
31455;DHT22;18084;53.028;8.834;2023-03-12T11:30:22;3.80;89.70
31455;DHT22;18084;53.028;8.834;2023-03-12T11:32:48;3.70;99.90
31455;DHT22;18084;53.028;8.834;2023-03-12T11:35:16;3.60;99.90
31455;DHT22;18084;53.028;8.834;2023-03-12T11:37:59;5.40;99.90
31455;DHT22;18084;53.028;8.834;2023-03-12T11:43:16;3.20;99.90
31455;DHT22;18084;53.028;8.834;2023-03-12T11:45:49;3.10;99.90
31455;DHT22;18084;53.028;8.834;2023-03-12T11:48:25;3.00;99.90
31455;DHT22;18084;53.028;8.834;2023-03-12T11:56:21;2.80;99.90
31455;DHT22;18084;53.028;8.834;2023-03-12T12:06:47;2.60;99.90
31455;DHT22;18084;53.028;8.834;2023-03-12T12:17:07;2.50;99.90
31455;DHT22;18084;53.028;8.834;2023-03-12T12:22:18;2.50;99.90
31455;DHT22;18084;53.028;8.834;2023-03-12T12:24:55;2.40;99.90
31455;DHT22;18084;53.028;8.834;2023-03-12T12:27:27;2.50;99.90
31455;DHT22;18084;53.028;8.834;2023-03-12T12:32:58;2.40;99.90
31455;DHT22;18084;53.028;8.834;2023-03-12T12:35:35;2.40;99.90
31455;DHT22;18084;53.028;8.834;2023-03-12T12:38:04;2.30;99.90
31455;DHT22;18084;53.028;8.834;2023-03-12T12:40:48;2.20;99.90
31455;DHT22;18084;53.028;8.834;2023-03-12T12:43:23;2.30;99.90
31455;DHT22;18084;53.028;8.834;2023-03-12T12:45:50;2.20;99.90
31455;DHT22;18084;53.028;8.834;2023-03-12T12:48:17;2.20;99.90
31455;DHT22;18084;53.028;8.834;2023-03-12T12:50:44;2.20;99.90
31455;DHT22;18084;53.028;8.834;2023-03-12T12:53:20;2.20;99.90
31455;DHT22;18084;53.028;8.834;2023-03-12T12:56:08;2.20;99.90
31455;DHT22;18084;53.028;8.834;2023-03-12T12:58:41;2.20;99.90
31455;DHT22;18084;53.028;8.834;2023-03-12T13:01:08;2.20;99.90
31455;DHT22;18084;53.028;8.834;2023-03-12T13:03:34;2.20;99.90
31455;DHT22;18084;53.028;8.834;2023-03-12T13:06:02;2.20;99.90
31455;DHT22;18084;53.028;8.834;2023-03-12T13:11:03;2.30;99.90
31455;DHT22;18084;53.028;8.834;2023-03-12T13:13:28;2.20;99.90
31455;DHT22;18084;53.028;8.834;2023-03-12T13:18:38;2.30;99.90
31455;DHT22;18084;53.028;8.834;2023-03-12T13:21:05;2.30;99.90
31455;DHT22;18084;53.028;8.834;2023-03-12T13:26:05;2.40;99.90
31455;DHT22;18084;53.028;8.834;2023-03-12T13:33:48;2.60;99.90
31455;DHT22;18084;53.028;8.834;2023-03-12T13:38:59;2.60;99.90
31455;DHT22;18084;53.028;8.834;2023-03-12T13:41:36;2.60;99.90
31455;DHT22;18084;53.028;8.834;2023-03-12T13:46:47;2.70;99.90
31455;DHT22;18084;53.028;8.834;2023-03-12T13:49:13;2.70;99.90
31455;DHT22;18084;53.028;8.834;2023-03-12T13:51:59;2.70;99.90
31455;DHT22;18084;53.028;8.834;2023-03-12T13:54:30;2.80;99.90
31455;DHT22;18084;53.028;8.834;2023-03-12T13:56:57;2.80;99.90
31455;DHT22;18084;53.028;8.834;2023-03-12T13:59:23;2.70;99.90
31455;DHT22;18084;53.028;8.834;2023-03-12T14:01:52;2.80;99.90
31455;DHT22;18084;53.028;8.834;2023-03-12T14:04:22;4.70;99.90
31455;DHT22;18084;53.028;8.834;2023-03-12T14:06:53;2.90;99.90
31455;DHT22;18084;53.028;8.834;2023-03-12T14:09:37;2.90;99.90
31455;DHT22;18084;53.028;8.834;2023-03-12T14:12:11;2.90;99.90
31455;DHT22;18084;53.028;8.834;2023-03-12T14:14:42;2.90;99.90
31455;DHT22;18084;53.028;8.834;2023-03-12T14:17:16;2.70;99.90
31455;DHT22;18084;53.028;8.834;2023-03-12T14:19:47;2.90;99.90
31455;DHT22;18084;53.028;8.834;2023-03-12T14:22:15;2.80;99.90
31455;DHT22;18084;53.028;8.834;2023-03-12T14:24:46;2.90;99.90
31455;DHT22;18084;53.028;8.834;2023-03-12T14:27:17;2.90;99.90
31455;DHT22;18084;53.028;8.834;2023-03-12T14:29:44;3.00;99.90
31455;DHT22;18084;53.028;8.834;2023-03-12T14:32:25;3.00;99.90
31455;DHT22;18084;53.028;8.834;2023-03-12T14:34:56;3.00;99.90
31455;DHT22;18084;53.028;8.834;2023-03-12T14:37:23;3.00;99.90
31455;DHT22;18084;53.028;8.834;2023-03-12T14:39:53;3.00;99.90
31455;DHT22;18084;53.028;8.834;2023-03-12T14:42:21;3.00;99.90
31455;DHT22;18084;53.028;8.834;2023-03-12T14:47:38;3.20;99.90
31455;DHT22;18084;53.028;8.834;2023-03-12T14:50:03;3.20;99.90
31455;DHT22;18084;53.028;8.834;2023-03-12T14:52:29;3.20;99.90
31455;DHT22;18084;53.028;8.834;2023-03-12T14:55:06;3.30;99.90
31455;DHT22;18084;53.028;8.834;2023-03-12T14:57:32;3.20;99.90
31455;DHT22;18084;53.028;8.834;2023-03-12T14:59:58;3.30;99.90
31455;DHT22;18084;53.028;8.834;2023-03-12T15:02:25;3.30;99.90
31455;DHT22;18084;53.028;8.834;2023-03-12T15:04:52;3.40;99.90
31455;DHT22;18084;53.028;8.834;2023-03-12T15:07:21;3.40;99.90
31455;DHT22;18084;53.028;8.834;2023-03-12T15:09:48;3.40;99.90
31455;DHT22;18084;53.028;8.834;2023-03-12T15:12:19;3.40;99.90
31455;DHT22;18084;53.028;8.834;2023-03-12T15:14:45;3.50;99.90
31455;DHT22;18084;53.028;8.834;2023-03-12T15:17:13;3.60;99.90
31455;DHT22;18084;53.028;8.834;2023-03-12T15:19:40;3.70;99.90
31455;DHT22;18084;53.028;8.834;2023-03-12T15:22:08;3.70;99.90
31455;DHT22;18084;53.028;8.834;2023-03-12T15:24:38;3.80;99.90
31455;DHT22;18084;53.028;8.834;2023-03-12T15:30:20;3.90;99.90
31455;DHT22;18084;53.028;8.834;2023-03-12T15:33:05;4.00;99.90
31455;DHT22;18084;53.028;8.834;2023-03-12T15:35:31;4.00;99.90
31455;DHT22;18084;53.028;8.834;2023-03-12T15:37:56;4.10;99.90
31455;DHT22;18084;53.028;8.834;2023-03-12T15:40:23;4.20;99.90
31455;DHT22;18084;53.028;8.834;2023-03-12T15:42:49;4.20;99.90
31455;DHT22;18084;53.028;8.834;2023-03-12T15:45:24;5.30;99.90
31455;DHT22;18084;53.028;8.834;2023-03-12T15:47:52;4.20;99.90
31455;DHT22;18084;53.028;8.834;2023-03-12T15:50:26;4.30;99.90
31455;DHT22;18084;53.028;8.834;2023-03-12T15:53:02;4.30;99.90
31455;DHT22;18084;53.028;8.834;2023-03-12T15:55:28;4.30;99.90
31455;DHT22;18084;53.028;8.834;2023-03-12T15:57:55;4.30;99.90
31455;DHT22;18084;53.028;8.834;2023-03-12T16:00:30;4.40;99.90
31455;DHT22;18084;53.028;8.834;2023-03-12T16:03:00;4.40;99.90
31455;DHT22;18084;53.028;8.834;2023-03-12T16:05:27;4.40;99.90
31455;DHT22;18084;53.028;8.834;2023-03-12T16:07:53;4.40;99.90
31455;DHT22;18084;53.028;8.834;2023-03-12T16:10:19;4.50;99.90
31455;DHT22;18084;53.028;8.834;2023-03-12T16:12:46;4.50;99.90
31455;DHT22;18084;53.028;8.834;2023-03-12T16:15:14;4.50;99.90
31455;DHT22;18084;53.028;8.834;2023-03-12T16:17:40;4.60;99.90
31455;DHT22;18084;53.028;8.834;2023-03-12T16:20:05;4.60;99.90
31455;DHT22;18084;53.028;8.834;2023-03-12T16:22:31;4.70;99.90
31455;DHT22;18084;53.028;8.834;2023-03-12T16:24:56;4.60;99.90
31455;DHT22;18084;53.028;8.834;2023-03-12T16:27:21;4.60;99.90
31455;DHT22;18084;53.028;8.834;2023-03-12T16:29:47;4.70;99.90
31455;DHT22;18084;53.028;8.834;2023-03-12T16:32:13;4.70;99.90
31455;DHT22;18084;53.028;8.834;2023-03-12T16:34:39;4.80;99.90
31455;DHT22;18084;53.028;8.834;2023-03-12T16:37:07;4.80;99.90
31455;DHT22;18084;53.028;8.834;2023-03-12T16:39:32;4.80;99.90
31455;DHT22;18084;53.028;8.834;2023-03-12T16:41:59;4.80;99.90
31455;DHT22;18084;53.028;8.834;2023-03-12T16:44:25;4.80;99.90
31455;DHT22;18084;53.028;8.834;2023-03-12T16:46:52;4.90;99.90
31455;DHT22;18084;53.028;8.834;2023-03-12T16:49:17;4.90;99.90
31455;DHT22;18084;53.028;8.834;2023-03-12T16:51:45;5.10;99.90
31455;DHT22;18084;53.028;8.834;2023-03-12T16:54:10;5.20;99.90
31455;DHT22;18084;53.028;8.834;2023-03-12T16:56:36;5.20;99.90
31455;DHT22;18084;53.028;8.834;2023-03-12T16:59:02;6.90;99.90